createdAt,value
2017-12-08T00:00:20.781Z,1000.5
2017-12-08T00:01:22.184Z,1000.5
2017-12-08T00:02:23.663Z,1000.6
2017-12-08T00:03:25.063Z,1000.5
2017-12-08T00:04:26.545Z,1000.6
2017-12-08T00:05:27.944Z,1000.6
2017-12-08T00:06:29.424Z,1000.6
2017-12-08T00:07:30.826Z,1000.6
2017-12-08T00:08:32.245Z,1000.6
2017-12-08T00:09:33.755Z,1000.6
2017-12-08T00:10:35.150Z,1000.6
2017-12-08T00:11:36.555Z,1000.6
2017-12-08T00:12:38.071Z,1000.5
2017-12-08T00:13:39.470Z,1000.5
2017-12-08T00:14:40.948Z,1000.5
2017-12-08T00:15:42.350Z,1000.4
2017-12-08T00:16:43.829Z,1000.4
2017-12-08T00:17:45.227Z,1000.4
2017-12-08T00:18:46.710Z,1000.4
2017-12-08T00:19:48.112Z,1000.5
2017-12-08T00:20:49.592Z,1000.4
2017-12-08T00:21:51.026Z,1000.5
2017-12-08T00:22:52.449Z,1000.4
2017-12-08T00:23:53.910Z,1000.5
2017-12-08T00:24:55.313Z,1000.5
2017-12-08T00:25:56.718Z,1000.5
2017-12-08T00:26:58.232Z,1000.5
2017-12-08T00:27:59.642Z,1000.5
2017-12-08T00:29:01.112Z,1000.5
2017-12-08T00:30:02.515Z,1000.4
2017-12-08T00:31:03.996Z,1000.5
2017-12-08T00:32:05.397Z,1000.4
2017-12-08T00:33:06.884Z,1000.5
2017-12-08T00:34:08.284Z,1000.5
2017-12-08T00:35:09.765Z,1000.5
2017-12-08T00:36:11.167Z,1000.5
2017-12-08T00:37:12.636Z,1000.6
2017-12-08T00:38:14.416Z,1000.6
2017-12-08T00:39:15.929Z,1000.6
2017-12-08T00:40:17.324Z,1000.6
2017-12-08T00:41:18.807Z,1000.6
2017-12-08T00:42:20.205Z,1000.6
2017-12-08T00:43:21.609Z,1000.6
2017-12-08T00:44:23.026Z,1000.5
2017-12-08T00:45:24.427Z,1000.6
2017-12-08T00:46:25.845Z,1000.5
2017-12-08T00:47:27.345Z,1000.5
2017-12-08T00:48:28.746Z,1000.6
2017-12-08T00:49:30.227Z,1000.5
2017-12-08T00:50:31.628Z,1000.5
2017-12-08T00:51:33.109Z,1000.5
2017-12-08T00:52:34.516Z,1000.5
2017-12-08T00:53:35.992Z,1000.5
2017-12-08T00:54:37.395Z,1000.4
2017-12-08T00:55:38.886Z,1000.5
2017-12-08T00:56:40.293Z,1000.5
2017-12-08T00:57:41.763Z,1000.4
2017-12-08T00:58:43.166Z,1000.5
2017-12-08T00:59:44.631Z,1000.4
2017-12-08T01:00:46.030Z,1000.5
2017-12-08T01:01:47.514Z,1000.5
2017-12-08T01:02:48.917Z,1000.4
2017-12-08T01:03:50.392Z,1000.4
2017-12-08T01:04:51.791Z,1000.4
2017-12-08T01:05:53.273Z,1000.5
2017-12-08T01:06:54.675Z,1000.5
2017-12-08T01:07:56.089Z,1000.6
2017-12-08T01:08:57.596Z,1000.6
2017-12-08T01:09:58.998Z,1000.6
2017-12-08T01:11:00.396Z,1000.5
2017-12-08T01:12:01.815Z,1000.5
2017-12-08T01:13:03.217Z,1000.5
2017-12-08T01:14:04.614Z,1000.5
2017-12-08T01:15:06.036Z,1000.5
2017-12-08T01:16:07.432Z,1000.6
2017-12-08T01:17:08.828Z,1000.6
2017-12-08T01:18:10.251Z,1000.5
2017-12-08T01:19:11.675Z,1000.6
2017-12-08T01:20:13.070Z,1000.6
2017-12-08T01:21:14.574Z,1000.6
2017-12-08T01:22:15.969Z,1000.6
2017-12-08T01:23:17.371Z,1000.6
2017-12-08T01:24:18.792Z,1000.6
2017-12-08T01:25:20.190Z,1000.5
2017-12-08T01:26:21.588Z,1000.6
2017-12-08T01:27:23.007Z,1000.6
2017-12-08T01:28:24.402Z,1000.7
2017-12-08T01:29:25.890Z,1000.7
2017-12-08T01:30:27.288Z,1000.7
2017-12-08T01:31:28.770Z,1000.7
2017-12-08T01:32:30.171Z,1000.8
2017-12-08T01:33:31.572Z,1000.8
2017-12-08T01:34:32.989Z,1000.7
2017-12-08T01:35:34.384Z,1000.8
2017-12-08T01:36:35.786Z,1000.8
2017-12-08T01:37:37.216Z,1000.8
2017-12-08T01:38:38.608Z,1000.8
2017-12-08T01:39:40.088Z,1000.8
2017-12-08T01:40:41.486Z,1000.8
2017-12-08T01:41:42.970Z,1000.8
2017-12-08T01:42:44.370Z,1000.7
2017-12-08T01:43:45.851Z,1000.8
2017-12-08T01:44:47.252Z,1000.8
2017-12-08T01:45:48.730Z,1000.8
2017-12-08T01:46:50.132Z,1000.8
2017-12-08T01:47:51.610Z,1000.8
2017-12-08T01:48:53.012Z,1000.8
2017-12-08T01:49:54.493Z,1000.9
2017-12-08T01:50:55.893Z,1000.8
2017-12-08T01:51:57.384Z,1000.9
2017-12-08T01:52:58.787Z,1000.9
2017-12-08T01:54:00.252Z,1000.9
2017-12-08T01:55:01.655Z,1000.8
2017-12-08T01:56:03.136Z,1000.8
2017-12-08T01:57:04.911Z,1000.8
2017-12-08T01:58:06.309Z,1000.8
2017-12-08T01:59:08.788Z,1000.8
2017-12-08T02:00:10.184Z,1000.9
2017-12-08T02:01:11.588Z,1000.9
2017-12-08T02:02:13.008Z,1000.8
2017-12-08T02:03:14.409Z,1000.8
2017-12-08T02:04:15.806Z,1000.9
2017-12-08T02:05:17.227Z,1000.8
2017-12-08T02:06:18.624Z,1000.8
2017-12-08T02:07:20.106Z,1000.8
2017-12-08T02:08:21.504Z,1000.8
2017-12-08T02:09:22.908Z,1000.9
2017-12-08T02:10:24.331Z,1000.8
2017-12-08T02:11:25.726Z,1000.8
2017-12-08T02:12:27.122Z,1000.9
2017-12-08T02:13:28.544Z,1000.9
2017-12-08T02:14:29.946Z,1000.8
2017-12-08T02:15:31.430Z,1000.9
2017-12-08T02:16:32.831Z,1000.9
2017-12-08T02:17:34.305Z,1000.9
2017-12-08T02:18:35.703Z,1000.9
2017-12-08T02:19:37.189Z,1000.9
2017-12-08T02:20:38.586Z,1000.9
2017-12-08T02:21:40.079Z,1000.9
2017-12-08T02:22:41.476Z,1000.9
2017-12-08T02:23:42.881Z,1000.9
2017-12-08T02:24:44.391Z,1000.9
2017-12-08T02:25:45.789Z,1000.8
2017-12-08T02:26:47.189Z,1000.8
2017-12-08T02:27:48.629Z,1000.8
2017-12-08T02:28:50.030Z,1000.8
2017-12-08T02:29:51.433Z,1000.8
2017-12-08T02:30:52.932Z,1000.8
2017-12-08T02:31:54.331Z,1000.8
2017-12-08T02:32:55.731Z,1000.8
2017-12-08T02:33:57.149Z,1000.8
2017-12-08T02:34:58.562Z,1000.8
2017-12-08T02:35:59.961Z,1000.9
2017-12-08T02:37:01.470Z,1000.9
2017-12-08T02:38:02.871Z,1000.9
2017-12-08T02:39:04.270Z,1000.8
2017-12-08T02:40:05.687Z,1000.9
2017-12-08T02:41:07.086Z,1000.8
2017-12-08T02:42:08.488Z,1000.8
2017-12-08T02:43:09.908Z,1000.8
2017-12-08T02:44:11.306Z,1000.9
2017-12-08T02:45:13.543Z,1000.9
2017-12-08T02:46:15.045Z,1001.0
2017-12-08T02:47:16.460Z,1001.0
2017-12-08T02:48:17.926Z,1000.9
2017-12-08T02:49:19.330Z,1000.9
2017-12-08T02:50:20.731Z,1000.9
2017-12-08T02:51:22.247Z,1001.0
2017-12-08T02:52:23.648Z,1001.0
2017-12-08T02:53:25.050Z,1000.9
2017-12-08T02:54:26.470Z,1001.0
2017-12-08T02:55:27.863Z,1001.0
2017-12-08T02:56:29.278Z,1001.0
2017-12-08T02:57:30.786Z,1000.9
2017-12-08T02:58:32.190Z,1000.9
2017-12-08T02:59:33.590Z,1001.0
2017-12-08T03:00:35.005Z,1000.8
2017-12-08T03:01:36.408Z,1000.9
2017-12-08T03:02:37.809Z,1000.8
2017-12-08T03:03:39.232Z,1000.8
2017-12-08T03:04:40.632Z,1000.7
2017-12-08T03:05:42.045Z,1000.8
2017-12-08T03:06:43.544Z,1000.8
2017-12-08T03:07:44.951Z,1000.8
2017-12-08T03:08:46.350Z,1000.8
2017-12-08T03:09:47.765Z,1000.8
2017-12-08T03:10:49.162Z,1000.8
2017-12-08T03:11:50.564Z,1000.8
2017-12-08T03:12:51.982Z,1000.8
2017-12-08T03:13:53.397Z,1000.8
2017-12-08T03:14:54.799Z,1000.8
2017-12-08T03:15:56.331Z,1000.8
2017-12-08T03:16:57.730Z,1000.8
2017-12-08T03:17:59.127Z,1000.8
2017-12-08T03:19:00.625Z,1000.8
2017-12-08T03:20:02.026Z,1000.8
2017-12-08T03:21:03.435Z,1000.8
2017-12-08T03:22:04.947Z,1000.8
2017-12-08T03:23:06.342Z,1000.8
2017-12-08T03:24:07.775Z,1000.8
2017-12-08T03:25:09.269Z,1000.8
2017-12-08T03:26:10.667Z,1000.8
2017-12-08T03:27:12.064Z,1000.7
2017-12-08T03:28:13.488Z,1000.8
2017-12-08T03:29:14.890Z,1000.7
2017-12-08T03:30:16.291Z,1000.7
2017-12-08T03:31:17.708Z,1000.8
2017-12-08T03:32:19.109Z,1000.8
2017-12-08T03:33:20.526Z,1000.8
2017-12-08T03:34:22.026Z,1000.8
2017-12-08T03:35:23.425Z,1000.8
2017-12-08T03:36:24.908Z,1000.8
2017-12-08T03:37:26.304Z,1000.7
2017-12-08T03:38:27.806Z,1000.8
2017-12-08T03:39:29.187Z,1000.8
2017-12-08T03:40:30.668Z,1000.8
2017-12-08T03:41:32.073Z,1000.8
2017-12-08T03:42:33.559Z,1000.8
2017-12-08T03:43:34.983Z,1000.8
2017-12-08T03:44:36.383Z,1000.7
2017-12-08T03:45:37.872Z,1000.8
2017-12-08T03:46:39.277Z,1000.8
2017-12-08T03:47:40.669Z,1000.8
2017-12-08T03:48:42.088Z,1000.9
2017-12-08T03:49:43.492Z,1000.9
2017-12-08T03:50:44.893Z,1000.9
2017-12-08T03:51:46.308Z,1000.9
2017-12-08T03:52:47.702Z,1001.0
2017-12-08T03:53:49.104Z,1000.9
2017-12-08T03:54:50.527Z,1000.9
2017-12-08T03:55:51.925Z,1000.9
2017-12-08T03:56:53.324Z,1000.9
2017-12-08T03:57:54.756Z,1000.8
2017-12-08T03:58:56.154Z,1000.9
2017-12-08T03:59:57.554Z,1000.9
2017-12-08T04:00:59.067Z,1000.9
2017-12-08T04:02:00.467Z,1000.9
2017-12-08T04:03:01.947Z,1000.8
2017-12-08T04:04:03.348Z,1000.9
2017-12-08T04:05:04.760Z,1000.8
2017-12-08T04:06:06.267Z,1000.8
2017-12-08T04:07:07.664Z,1000.8
2017-12-08T04:08:09.065Z,1000.8
2017-12-08T04:09:10.493Z,1000.8
2017-12-08T04:10:11.889Z,1000.9
2017-12-08T04:11:13.281Z,1000.9
2017-12-08T04:12:14.719Z,1000.8
2017-12-08T04:13:16.118Z,1000.8
2017-12-08T04:14:17.514Z,1000.8
2017-12-08T04:15:19.028Z,1000.8
2017-12-08T04:16:20.436Z,1000.8
2017-12-08T04:17:21.834Z,1000.8
2017-12-08T04:18:23.348Z,1000.8
2017-12-08T04:19:24.752Z,1000.9
2017-12-08T04:20:26.149Z,1000.9
2017-12-08T04:21:27.575Z,1000.9
2017-12-08T04:22:28.973Z,1000.9
2017-12-08T04:23:30.454Z,1000.9
2017-12-08T04:24:31.854Z,1001.0
2017-12-08T04:25:33.272Z,1000.9
2017-12-08T04:26:34.787Z,1000.8
2017-12-08T04:27:36.181Z,1000.9
2017-12-08T04:28:37.583Z,1000.8
2017-12-08T04:29:39.091Z,1000.8
2017-12-08T04:30:40.489Z,1000.9
2017-12-08T04:31:41.979Z,1000.9
2017-12-08T04:32:43.379Z,1000.9
2017-12-08T04:33:44.852Z,1000.9
2017-12-08T04:34:46.251Z,1000.9
2017-12-08T04:35:48.114Z,1000.9
2017-12-08T04:36:49.514Z,1000.9
2017-12-08T04:37:51.022Z,1000.9
2017-12-08T04:38:52.422Z,1000.9
2017-12-08T04:39:53.902Z,1000.9
2017-12-08T04:40:55.303Z,1001.0
2017-12-08T04:41:56.787Z,1001.0
2017-12-08T04:42:58.183Z,1001.0
2017-12-08T04:43:59.665Z,1001.0
2017-12-08T04:45:01.065Z,1001.0
2017-12-08T04:46:02.474Z,1001.0
2017-12-08T04:47:03.883Z,1000.9
2017-12-08T04:48:05.285Z,1001.0
2017-12-08T04:49:06.687Z,1001.0
2017-12-08T04:50:08.102Z,1001.1
2017-12-08T04:51:09.506Z,1001.1
2017-12-08T04:52:10.904Z,1001.1
2017-12-08T04:53:12.320Z,1001.0
2017-12-08T04:54:13.724Z,1001.1
2017-12-08T04:55:15.125Z,1001.2
2017-12-08T04:56:16.540Z,1001.1
2017-12-08T04:57:17.943Z,1001.1
2017-12-08T04:58:19.335Z,1001.2
2017-12-08T04:59:20.758Z,1001.1
2017-12-08T05:00:22.167Z,1001.1
2017-12-08T05:01:23.566Z,1001.1
2017-12-08T05:02:25.083Z,1001.1
2017-12-08T05:03:26.481Z,1001.1
2017-12-08T05:04:27.960Z,1001.1
2017-12-08T05:05:29.362Z,1001.1
2017-12-08T05:06:30.757Z,1001.0
2017-12-08T05:07:32.181Z,1001.1
2017-12-08T05:08:33.581Z,1001.0
2017-12-08T05:09:34.978Z,1001.0
2017-12-08T05:10:36.398Z,1001.1
2017-12-08T05:11:37.838Z,1001.0
2017-12-08T05:12:39.290Z,1001.0
2017-12-08T05:13:40.688Z,1001.0
2017-12-08T05:14:42.159Z,1001.0
2017-12-08T05:15:43.563Z,1001.0
2017-12-08T05:16:45.041Z,1001.1
2017-12-08T05:17:46.444Z,1001.0
2017-12-08T05:18:48.295Z,1001.1
2017-12-08T05:19:49.772Z,1001.0
2017-12-08T05:20:51.175Z,1001.1
2017-12-08T05:21:52.579Z,1001.1
2017-12-08T05:22:54.092Z,1001.0
2017-12-08T05:23:55.494Z,1001.0
2017-12-08T05:24:56.891Z,1001.1
2017-12-08T05:25:58.351Z,1001.1
2017-12-08T05:26:59.747Z,1001.0
2017-12-08T05:28:01.606Z,1001.0
2017-12-08T05:29:03.010Z,1001.0
2017-12-08T05:30:04.488Z,1001.0
2017-12-08T05:31:05.915Z,1001.0
2017-12-08T05:32:07.363Z,1001.1
2017-12-08T05:33:08.759Z,1001.1
2017-12-08T05:34:10.253Z,1001.0
2017-12-08T05:35:11.636Z,1001.0
2017-12-08T05:36:13.041Z,1001.0
2017-12-08T05:37:14.463Z,1001.0
2017-12-08T05:38:15.862Z,1001.1
2017-12-08T05:39:17.257Z,1001.1
2017-12-08T05:40:18.680Z,1001.1
2017-12-08T05:41:20.313Z,1001.1
2017-12-08T05:42:21.739Z,1001.1
2017-12-08T05:43:23.205Z,1001.1
2017-12-08T05:44:24.611Z,1001.1
2017-12-08T05:45:26.086Z,1001.1
2017-12-08T05:46:27.483Z,1001.0
2017-12-08T05:47:28.881Z,1001.0
2017-12-08T05:48:30.309Z,1001.0
2017-12-08T05:49:31.719Z,1001.0
2017-12-08T05:50:33.146Z,1001.1
2017-12-08T05:51:34.628Z,1001.0
2017-12-08T05:52:36.029Z,1001.1
2017-12-08T05:53:37.508Z,1001.1
2017-12-08T05:54:38.916Z,1001.0
2017-12-08T05:55:40.392Z,1001.0
2017-12-08T05:56:41.791Z,1001.0
2017-12-08T05:57:43.273Z,1001.0
2017-12-08T05:58:44.667Z,1001.1
2017-12-08T05:59:46.153Z,1001.0
2017-12-08T06:00:47.547Z,1001.0
2017-12-08T06:01:48.943Z,1001.0
2017-12-08T06:02:50.367Z,1001.0
2017-12-08T06:03:51.767Z,1000.9
2017-12-08T06:04:53.168Z,1000.9
2017-12-08T06:05:54.589Z,1000.8
2017-12-08T06:06:56.021Z,1000.9
2017-12-08T06:07:57.411Z,1000.9
2017-12-08T06:08:58.910Z,1000.9
2017-12-08T06:10:00.307Z,1000.9
2017-12-08T06:11:01.708Z,1000.9
2017-12-08T06:12:03.165Z,1000.9
2017-12-08T06:13:04.562Z,1000.9
2017-12-08T06:14:06.009Z,1000.9
2017-12-08T06:15:07.422Z,1000.9
2017-12-08T06:16:08.894Z,1001.0
2017-12-08T06:17:10.287Z,1001.0
2017-12-08T06:18:11.686Z,1001.0
2017-12-08T06:19:13.109Z,1001.0
2017-12-08T06:20:14.507Z,1001.0
2017-12-08T06:21:15.909Z,1001.1
2017-12-08T06:22:17.326Z,1001.1
2017-12-08T06:23:18.722Z,1001.0
2017-12-08T06:24:20.209Z,1001.0
2017-12-08T06:25:21.607Z,1001.0
2017-12-08T06:26:23.092Z,1001.0
2017-12-08T06:27:24.494Z,1000.9
2017-12-08T06:28:25.971Z,1001.0
2017-12-08T06:29:27.364Z,1001.0
2017-12-08T06:30:28.851Z,1001.0
2017-12-08T06:31:30.251Z,1001.0
2017-12-08T06:32:31.731Z,1001.0
2017-12-08T06:33:33.141Z,1001.0
2017-12-08T06:34:34.615Z,1001.0
2017-12-08T06:35:36.010Z,1001.0
2017-12-08T06:36:37.406Z,1001.0
2017-12-08T06:37:38.802Z,1000.9
2017-12-08T06:38:40.198Z,1001.0
2017-12-08T06:39:41.710Z,1001.0
2017-12-08T06:40:43.848Z,1001.0
2017-12-08T06:41:45.875Z,1001.0
2017-12-08T06:42:47.851Z,1001.0
2017-12-08T06:43:49.852Z,1001.0
2017-12-08T06:44:51.861Z,1001.0
2017-12-08T06:45:53.426Z,1001.1
2017-12-08T06:46:54.830Z,1001.0
2017-12-08T06:47:56.238Z,1001.0
2017-12-08T06:48:57.745Z,1001.0
2017-12-08T06:49:59.144Z,1001.0
2017-12-08T06:51:00.632Z,1001.0
2017-12-08T06:52:02.028Z,1001.0
2017-12-08T06:53:03.425Z,1001.0
2017-12-08T06:54:04.943Z,1001.0
2017-12-08T06:55:06.347Z,1001.0
2017-12-08T06:56:07.747Z,1001.0
2017-12-08T06:57:09.272Z,1001.0
2017-12-08T06:58:10.667Z,1001.0
2017-12-08T06:59:12.152Z,1001.0
2017-12-08T07:00:13.555Z,1001.0
2017-12-08T07:01:15.034Z,1001.0
2017-12-08T07:02:16.425Z,1001.0
2017-12-08T07:03:17.914Z,1001.0
2017-12-08T07:04:19.315Z,1001.0
2017-12-08T07:05:20.805Z,1001.0
2017-12-08T07:06:22.204Z,1001.1
2017-12-08T07:07:23.686Z,1001.1
2017-12-08T07:08:25.108Z,1001.0
2017-12-08T07:09:26.509Z,1001.1
2017-12-08T07:10:28.032Z,1001.0
2017-12-08T07:11:29.410Z,1001.0
2017-12-08T07:12:30.808Z,1001.1
2017-12-08T07:13:32.432Z,1001.0
2017-12-08T07:14:33.829Z,1001.1
2017-12-08T07:15:35.304Z,1001.0
2017-12-08T07:16:36.743Z,1001.1
2017-12-08T07:17:38.142Z,1001.0
2017-12-08T07:18:39.543Z,1001.1
2017-12-08T07:19:40.962Z,1001.1
2017-12-08T07:20:42.358Z,1001.1
2017-12-08T07:21:43.841Z,1001.2
2017-12-08T07:22:45.243Z,1001.1
2017-12-08T07:23:46.646Z,1001.2
2017-12-08T07:24:48.064Z,1001.2
2017-12-08T07:25:49.460Z,1001.2
2017-12-08T07:26:50.860Z,1001.1
2017-12-08T07:27:52.280Z,1001.2
2017-12-08T07:28:53.679Z,1001.2
2017-12-08T07:29:55.084Z,1001.2
2017-12-08T07:30:56.605Z,1001.2
2017-12-08T07:31:58.007Z,1001.2
2017-12-08T07:32:59.409Z,1001.2
2017-12-08T07:34:00.819Z,1001.2
2017-12-08T07:35:02.232Z,1001.2
2017-12-08T07:36:03.700Z,1001.1
2017-12-08T07:37:05.512Z,1001.2
2017-12-08T07:38:06.991Z,1001.2
2017-12-08T07:39:08.395Z,1001.2
2017-12-08T07:40:09.872Z,1001.2
2017-12-08T07:41:11.277Z,1001.2
2017-12-08T07:42:12.748Z,1001.2
2017-12-08T07:43:14.199Z,1001.3
2017-12-08T07:44:15.553Z,1001.3
2017-12-08T07:45:16.973Z,1001.2
2017-12-08T07:46:18.371Z,1001.3
2017-12-08T07:47:19.776Z,1001.4
2017-12-08T07:48:21.226Z,1001.3
2017-12-08T07:49:22.613Z,1001.2
2017-12-08T07:50:24.067Z,1001.2
2017-12-08T07:51:25.470Z,1001.2
2017-12-08T07:52:26.951Z,1001.3
2017-12-08T07:53:28.371Z,1001.3
2017-12-08T07:54:29.770Z,1001.3
2017-12-08T07:55:32.192Z,1001.3
2017-12-08T07:56:33.595Z,1001.3
2017-12-08T07:57:34.997Z,1001.3
2017-12-08T07:58:36.413Z,1001.3
2017-12-08T07:59:37.833Z,1001.2
2017-12-08T08:00:39.297Z,1001.3
2017-12-08T08:01:40.714Z,1001.3
2017-12-08T08:02:42.142Z,1001.4
2017-12-08T08:03:43.615Z,1001.4
2017-12-08T08:04:45.017Z,1001.4
2017-12-08T08:05:46.440Z,1001.4
2017-12-08T08:06:47.944Z,1001.5
2017-12-08T08:07:49.339Z,1001.4
2017-12-08T08:08:50.744Z,1001.4
2017-12-08T08:09:52.257Z,1001.5
2017-12-08T08:10:53.657Z,1001.5
2017-12-08T08:11:55.057Z,1001.4
2017-12-08T08:12:56.473Z,1001.4
2017-12-08T08:13:57.879Z,1001.5
2017-12-08T08:14:59.279Z,1001.4
2017-12-08T08:16:00.693Z,1001.4
2017-12-08T08:17:02.098Z,1001.4
2017-12-08T08:18:03.504Z,1001.4
2017-12-08T08:19:04.915Z,1001.4
2017-12-08T08:20:06.315Z,1001.4
2017-12-08T08:21:07.716Z,1001.3
2017-12-08T08:22:09.133Z,1001.4
2017-12-08T08:23:10.537Z,1001.3
2017-12-08T08:24:11.938Z,1001.3
2017-12-08T08:25:13.351Z,1001.3
2017-12-08T08:26:14.751Z,1001.3
2017-12-08T08:27:16.231Z,1001.4
2017-12-08T08:28:17.635Z,1001.3
2017-12-08T08:29:19.112Z,1001.3
2017-12-08T08:30:20.515Z,1001.3
2017-12-08T08:31:21.992Z,1001.2
2017-12-08T08:32:23.393Z,1001.3
2017-12-08T08:33:24.873Z,1001.3
2017-12-08T08:34:26.279Z,1001.2
2017-12-08T08:35:27.756Z,1001.3
2017-12-08T08:36:29.160Z,1001.3
2017-12-08T08:37:30.634Z,1001.3
2017-12-08T08:38:32.046Z,1001.3
2017-12-08T08:39:33.519Z,1001.3
2017-12-08T08:40:34.921Z,1001.3
2017-12-08T08:41:36.401Z,1001.3
2017-12-08T08:42:37.821Z,1001.4
2017-12-08T08:43:39.280Z,1001.3
2017-12-08T08:44:40.688Z,1001.3
2017-12-08T08:45:42.090Z,1001.3
2017-12-08T08:46:43.600Z,1001.3
2017-12-08T08:47:45.006Z,1001.3
2017-12-08T08:48:46.410Z,1001.4
2017-12-08T08:49:48.843Z,1001.3
2017-12-08T08:50:50.250Z,1001.4
2017-12-08T08:51:51.728Z,1001.4
2017-12-08T08:52:53.130Z,1001.4
2017-12-08T08:53:54.605Z,1001.3
2017-12-08T08:54:56.010Z,1001.4
2017-12-08T08:55:57.486Z,1001.3
2017-12-08T08:56:58.892Z,1001.3
2017-12-08T08:58:00.365Z,1001.3
2017-12-08T08:59:01.789Z,1001.2
2017-12-08T09:00:03.306Z,1001.2
2017-12-08T09:01:04.650Z,1001.2
2017-12-08T09:02:06.154Z,1001.3
2017-12-08T09:03:07.560Z,1001.2
2017-12-08T09:04:08.963Z,1001.1
2017-12-08T09:05:10.449Z,1001.2
2017-12-08T09:06:11.856Z,1001.1
2017-12-08T09:07:13.261Z,1001.2
2017-12-08T09:08:14.770Z,1001.2
2017-12-08T09:09:16.175Z,1001.1
2017-12-08T09:10:17.580Z,1001.0
2017-12-08T09:11:19.092Z,1001.1
2017-12-08T09:12:20.497Z,1001.1
2017-12-08T09:13:21.906Z,1001.1
2017-12-08T09:14:23.413Z,1001.0
2017-12-08T09:15:24.816Z,1001.2
2017-12-08T09:16:26.228Z,1001.1
2017-12-08T09:17:27.755Z,1001.2
2017-12-08T09:18:29.593Z,1001.1
2017-12-08T09:19:30.973Z,1001.1
2017-12-08T09:20:32.463Z,1001.3
2017-12-08T09:21:33.869Z,1001.3
2017-12-08T09:22:35.269Z,1001.2
2017-12-08T09:23:36.792Z,1001.2
2017-12-08T09:24:38.195Z,1001.4
2017-12-08T09:25:39.664Z,1001.3
2017-12-08T09:26:41.853Z,1001.4
2017-12-08T09:27:44.922Z,1001.3
2017-12-08T09:28:46.854Z,1001.3
2017-12-08T09:29:48.899Z,1001.3
2017-12-08T09:30:51.887Z,1001.2
2017-12-08T09:31:53.247Z,1001.3
2017-12-08T09:32:54.654Z,1001.3
2017-12-08T09:33:56.101Z,1001.3
2017-12-08T09:34:57.512Z,1001.2
2017-12-08T09:35:58.917Z,1001.3
2017-12-08T09:37:00.429Z,1001.3
2017-12-08T09:38:01.830Z,1001.2
2017-12-08T09:39:03.231Z,1001.3
2017-12-08T09:40:04.745Z,1001.3
2017-12-08T09:41:06.180Z,1001.3
2017-12-08T09:42:07.584Z,1001.3
2017-12-08T09:43:09.068Z,1001.3
2017-12-08T09:44:10.474Z,1001.3
2017-12-08T09:45:11.871Z,1001.3
2017-12-08T09:46:13.286Z,1001.3
2017-12-08T09:47:14.688Z,1001.4
2017-12-08T09:48:16.091Z,1001.3
2017-12-08T09:49:17.607Z,1001.4
2017-12-08T09:50:19.006Z,1001.4
2017-12-08T09:51:20.490Z,1001.4
2017-12-08T09:52:21.891Z,1001.3
2017-12-08T09:53:23.369Z,1001.4
2017-12-08T09:54:24.774Z,1001.4
2017-12-08T09:55:26.181Z,1001.4
2017-12-08T09:56:27.693Z,1001.3
2017-12-08T09:57:29.097Z,1001.4
2017-12-08T09:58:30.495Z,1001.4
2017-12-08T09:59:31.910Z,1001.3
2017-12-08T10:00:33.313Z,1001.4
2017-12-08T10:01:34.789Z,1001.4
2017-12-08T10:02:36.189Z,1001.3
2017-12-08T10:03:37.672Z,1001.4
2017-12-08T10:04:39.073Z,1001.3
2017-12-08T10:05:40.474Z,1001.3
2017-12-08T10:06:41.910Z,1001.3
2017-12-08T10:07:43.290Z,1001.3
2017-12-08T10:08:44.694Z,1001.3
2017-12-08T10:09:46.214Z,1001.4
2017-12-08T10:10:47.617Z,1001.3
2017-12-08T10:11:49.094Z,1001.3
2017-12-08T10:12:50.495Z,1001.3
2017-12-08T10:13:51.975Z,1001.3
2017-12-08T10:14:53.378Z,1001.1
2017-12-08T10:15:54.781Z,1001.2
2017-12-08T10:16:56.294Z,1001.2
2017-12-08T10:17:57.699Z,1001.3
2017-12-08T10:18:59.098Z,1001.2
2017-12-08T10:20:00.615Z,1001.2
2017-12-08T10:21:02.016Z,1001.1
2017-12-08T10:22:03.420Z,1001.3
2017-12-08T10:23:04.833Z,1001.2
2017-12-08T10:24:06.236Z,1001.2
2017-12-08T10:25:07.647Z,1001.0
2017-12-08T10:26:09.156Z,1001.1
2017-12-08T10:27:10.553Z,1001.0
2017-12-08T10:28:11.954Z,1001.0
2017-12-08T10:29:13.752Z,1001.1
2017-12-08T10:30:15.153Z,1001.1
2017-12-08T10:31:16.661Z,1001.0
2017-12-08T10:32:18.063Z,1001.0
2017-12-08T10:33:19.545Z,1000.9
2017-12-08T10:34:20.950Z,1000.9
2017-12-08T10:35:22.356Z,1000.9
2017-12-08T10:36:23.873Z,1000.9
2017-12-08T10:37:25.266Z,1000.9
2017-12-08T10:38:26.674Z,1001.0
2017-12-08T10:39:28.085Z,1001.0
2017-12-08T10:40:29.488Z,1000.9
2017-12-08T10:41:30.892Z,1000.9
2017-12-08T10:42:32.406Z,1000.9
2017-12-08T10:43:34.173Z,1000.9
2017-12-08T10:44:35.586Z,1000.9
2017-12-08T10:45:37.034Z,1000.9
2017-12-08T10:46:38.433Z,1000.9
2017-12-08T10:47:39.916Z,1000.8
2017-12-08T10:48:41.313Z,1000.9
2017-12-08T10:49:42.796Z,1000.8
2017-12-08T10:50:44.193Z,1000.8
2017-12-08T10:51:45.676Z,1000.6
2017-12-08T10:52:47.074Z,1000.7
2017-12-08T10:53:48.556Z,1000.7
2017-12-08T10:54:49.950Z,1000.7
2017-12-08T10:55:51.352Z,1000.8
2017-12-08T10:56:52.776Z,1000.7
2017-12-08T10:57:54.175Z,1000.8
2017-12-08T10:58:55.579Z,1000.7
2017-12-08T10:59:57.097Z,1000.8
2017-12-08T11:00:58.500Z,1000.8
2017-12-08T11:01:59.897Z,1000.7
2017-12-08T11:03:01.316Z,1000.7
2017-12-08T11:04:02.715Z,1000.8
2017-12-08T11:05:04.116Z,1000.7
2017-12-08T11:06:05.641Z,1000.7
2017-12-08T11:07:07.038Z,1000.7
2017-12-08T11:08:08.521Z,1000.7
2017-12-08T11:09:09.915Z,1000.7
2017-12-08T11:10:11.401Z,1000.7
2017-12-08T11:11:12.794Z,1000.7
2017-12-08T11:12:14.291Z,1000.7
2017-12-08T11:13:15.618Z,1000.8
2017-12-08T11:14:17.019Z,1000.8
2017-12-08T11:15:18.459Z,1000.7
2017-12-08T11:16:19.965Z,1000.8
2017-12-08T11:17:21.341Z,1000.8
2017-12-08T11:18:22.849Z,1000.8
2017-12-08T11:19:24.254Z,1000.8
2017-12-08T11:20:25.707Z,1000.8
2017-12-08T11:21:27.105Z,1000.8
2017-12-08T11:22:28.511Z,1000.8
2017-12-08T11:23:30.019Z,1000.8
2017-12-08T11:24:31.418Z,1000.8
2017-12-08T11:25:32.819Z,1000.8
2017-12-08T11:26:34.339Z,1000.8
2017-12-08T11:27:35.744Z,1000.8
2017-12-08T11:28:37.148Z,1000.8
2017-12-08T11:29:38.661Z,1000.8
2017-12-08T11:30:40.063Z,1000.7
2017-12-08T11:31:41.464Z,1000.7
2017-12-08T11:32:42.878Z,1000.8
2017-12-08T11:33:44.282Z,1000.8
2017-12-08T11:34:45.862Z,1000.7
2017-12-08T11:35:47.265Z,1000.7
2017-12-08T11:36:48.947Z,1000.8
2017-12-08T11:37:50.348Z,1000.8
2017-12-08T11:38:52.040Z,1000.8
2017-12-08T11:39:53.436Z,1000.8
2017-12-08T11:40:55.164Z,1000.8
2017-12-08T11:41:56.525Z,1000.8
2017-12-08T11:42:58.208Z,1000.8
2017-12-08T11:43:59.617Z,1000.9
2017-12-08T11:45:01.315Z,1000.8
2017-12-08T11:46:02.733Z,1000.8
2017-12-08T11:47:04.385Z,1000.8
2017-12-08T11:48:05.796Z,1000.9
2017-12-08T11:49:07.495Z,1000.9
2017-12-08T11:50:08.889Z,1000.9
2017-12-08T11:51:10.298Z,1001.0
2017-12-08T11:52:12.007Z,1001.0
2017-12-08T11:53:13.418Z,1001.0
2017-12-08T11:54:14.819Z,1001.0
2017-12-08T11:55:16.520Z,1001.0
2017-12-08T11:56:17.920Z,1001.0
2017-12-08T11:57:19.322Z,1001.0
2017-12-08T11:58:20.837Z,1001.0
2017-12-08T11:59:22.238Z,1001.0
2017-12-08T12:00:23.643Z,1001.1
2017-12-08T12:01:25.179Z,1001.1
2017-12-08T12:02:26.583Z,1001.1
2017-12-08T12:03:28.244Z,1001.1
2017-12-08T12:04:29.674Z,1001.0
2017-12-08T12:05:31.329Z,1001.1
2017-12-08T12:06:32.729Z,1001.1
2017-12-08T12:07:34.416Z,1001.1
2017-12-08T12:08:35.819Z,1001.1
2017-12-08T12:09:37.350Z,1001.1
2017-12-08T12:10:38.698Z,1001.2
2017-12-08T12:11:40.103Z,1001.1
2017-12-08T12:12:41.616Z,1001.1
2017-12-08T12:13:43.020Z,1001.1
2017-12-08T12:14:44.417Z,1001.1
2017-12-08T12:15:45.935Z,1001.1
2017-12-08T12:16:47.337Z,1001.1
2017-12-08T12:17:49.022Z,1001.2
2017-12-08T12:18:50.424Z,1001.2
2017-12-08T12:19:52.110Z,1001.2
2017-12-08T12:20:53.515Z,1001.3
2017-12-08T12:21:54.911Z,1001.2
2017-12-08T12:22:56.432Z,1001.3
2017-12-08T12:23:57.839Z,1001.3
2017-12-08T12:24:59.277Z,1001.3
2017-12-08T12:26:00.750Z,1001.3
2017-12-08T12:27:02.152Z,1001.4
2017-12-08T12:28:03.554Z,1001.3
2017-12-08T12:29:05.072Z,1001.3
2017-12-08T12:30:06.469Z,1001.3
2017-12-08T12:31:07.870Z,1001.4
2017-12-08T12:32:09.392Z,1001.4
2017-12-08T12:33:10.794Z,1001.4
2017-12-08T12:34:12.196Z,1001.3
2017-12-08T12:35:13.713Z,1001.4
2017-12-08T12:36:15.113Z,1001.4
2017-12-08T12:37:16.516Z,1001.4
2017-12-08T12:38:18.049Z,1001.4
2017-12-08T12:39:19.452Z,1001.3
2017-12-08T12:40:20.854Z,1001.3
2017-12-08T12:41:22.355Z,1001.3
2017-12-08T12:42:23.755Z,1001.4
2017-12-08T12:43:25.170Z,1001.4
2017-12-08T12:44:26.674Z,1001.4
2017-12-08T12:45:28.075Z,1001.4
2017-12-08T12:46:29.481Z,1001.5